Columbus, Montana
Current Conditions -  °F | °C
As of 2:53 PM on Sunday 21 Dec 2014 (Local Time) from KBIL Reporting Station
Broken Clouds Broken Clouds  
Wind Chill: 50°   Ceiling: 14000
Heat Index: 50°   Visibility: 10mi
Dew Point: 19°   Wind: 35mph
Humidity: 29%   Direction: 300°WNW
Pressure: 29.45"   Gusts: 53mph
Location:  45.64°N, 109.25°W
Report Text: KBIL 212153Z 30030G46KT 10SM SCT085 BKN140 BKN220 10/M07 A2945 RMK AO2 PK WND 30051/2126 SLP981 VIRGA ALQDS SHRASN DSNT N-SE T01001072
Loading
Personal Weather Stations






























Interactive Weather Map New forecast layout! Learn more

10-Day Weather Forecast

Advertisements
Track Severe Weather on mobile